createdAt,value
2022-10-15T00:02:00.969Z,102233.94
2022-10-15T00:19:01.767Z,102210.81
2022-10-15T00:21:32.242Z,102215.88
2022-10-15T00:24:01.883Z,102218.25
2022-10-15T00:26:32.437Z,102220.78
2022-10-15T00:29:04.925Z,102213.19
2022-10-15T00:31:35.107Z,102213.28
2022-10-15T00:34:07.390Z,102210.66
2022-10-15T00:36:41.655Z,102212.19
2022-10-15T00:39:12.586Z,102220.28
2022-10-15T00:41:44.591Z,102218.88
2022-10-15T00:44:51.602Z,102212.94
2022-10-15T00:47:27.066Z,102219.28
2022-10-15T00:50:03.696Z,102216.78
2022-10-15T00:52:44.426Z,102220.53
2022-10-15T00:55:19.269Z,102214.34
2022-10-15T00:57:52.334Z,102214.00
2022-10-15T01:00:23.172Z,102214.44
2022-10-15T01:02:53.835Z,102226.41
2022-10-15T01:05:26.793Z,102218.16
2022-10-15T01:07:57.632Z,102225.91
2022-10-15T01:10:37.414Z,102220.94
2022-10-15T01:13:15.902Z,102227.31
2022-10-15T01:15:52.724Z,102222.38
2022-10-15T01:18:28.623Z,102219.63
2022-10-15T01:21:08.203Z,102211.38
2022-10-15T01:24:17.896Z,102219.84
2022-10-15T01:27:34.375Z,102222.69
2022-10-15T01:30:25.473Z,102209.78
2022-10-15T01:33:12.528Z,102209.34
2022-10-15T01:35:51.032Z,102217.13
2022-10-15T01:38:34.577Z,102221.88
2022-10-15T01:41:11.302Z,102226.59
2022-10-15T01:43:48.650Z,102215.16
2022-10-15T01:46:40.158Z,102222.28
2022-10-15T01:49:15.920Z,102219.88
2022-10-15T01:51:49.858Z,102219.13
2022-10-15T01:54:22.180Z,102221.09
2022-10-15T01:56:56.727Z,102229.75
2022-10-15T01:59:30.504Z,102221.44
2022-10-15T02:02:02.663Z,102234.78
2022-10-15T02:04:33.943Z,102222.88
2022-10-15T02:07:07.673Z,102234.00
2022-10-15T02:09:48.257Z,102225.69
2022-10-15T02:12:52.786Z,102232.81
2022-10-15T02:15:32.799Z,102232.91
2022-10-15T02:18:13.963Z,102226.91
2022-10-15T02:20:51.421Z,102223.06
2022-10-15T02:23:25.981Z,102221.13
2022-10-15T02:26:01.396Z,102227.56
2022-10-15T02:28:35.387Z,102219.69
2022-10-15T02:31:12.096Z,102220.44
2022-10-15T02:33:48.839Z,102231.06
2022-10-15T02:36:21.487Z,102214.41
2022-10-15T02:38:54.204Z,102223.28
2022-10-15T02:41:24.990Z,102222.53
2022-10-15T02:43:55.984Z,102222.72
2022-10-15T02:46:26.854Z,102221.31
2022-10-15T02:48:58.272Z,102224.72
2022-10-15T02:51:28.762Z,102229.41
2022-10-15T02:53:58.741Z,102219.03
2022-10-15T02:59:06.261Z,102229.00
2022-10-15T03:01:37.103Z,102225.34
2022-10-15T03:04:10.273Z,102228.09
2022-10-15T03:06:40.728Z,102225.03
2022-10-15T03:09:10.744Z,102225.91
2022-10-15T03:11:43.897Z,102229.75
2022-10-15T03:14:14.699Z,102231.94
2022-10-15T03:16:45.706Z,102227.56
2022-10-15T03:19:20.962Z,102231.94
2022-10-15T03:21:53.775Z,102234.13
2022-10-15T03:24:24.741Z,102228.97
2022-10-15T03:26:56.767Z,102237.38
2022-10-15T03:29:26.721Z,102235.19
2022-10-15T03:47:24.336Z,102230.59
2022-10-15T03:49:56.213Z,102227.56
2022-10-15T03:52:27.847Z,102226.56
2022-10-15T03:54:58.780Z,102224.25
2022-10-15T03:57:28.706Z,102224.78
2022-10-15T04:00:06.923Z,102222.94
2022-10-15T04:02:41.913Z,102230.59
2022-10-15T04:05:25.151Z,102231.91
2022-10-15T04:08:00.695Z,102239.44
2022-10-15T04:10:33.691Z,102242.63
2022-10-15T04:13:03.538Z,102242.16
2022-10-15T04:15:39.359Z,102243.34
2022-10-15T04:18:13.895Z,102248.75
2022-10-15T04:20:46.151Z,102239.34
2022-10-15T04:23:20.611Z,102246.22
2022-10-15T04:26:10.824Z,102251.69
2022-10-15T04:28:40.631Z,102253.78
2022-10-15T04:31:15.952Z,102251.06
2022-10-15T04:33:50.811Z,102244.91
2022-10-15T04:36:23.276Z,102243.94
2022-10-15T04:38:58.833Z,102245.38
2022-10-15T04:41:41.671Z,102243.72
2022-10-15T04:44:29.720Z,102240.69
2022-10-15T04:47:02.567Z,102238.94
2022-10-15T04:49:52.860Z,102240.47
2022-10-15T04:52:53.499Z,102222.09
2022-10-15T04:55:30.391Z,102231.94
2022-10-15T04:58:12.681Z,102238.72
2022-10-15T05:00:46.068Z,102238.28
2022-10-15T05:03:44.126Z,102241.56
2022-10-15T05:06:19.264Z,102242.09
2022-10-15T05:08:56.351Z,102239.81
2022-10-15T05:11:43.277Z,102242.34
2022-10-15T05:14:20.196Z,102246.34
2022-10-15T05:17:14.066Z,102246.88
2022-10-15T05:19:46.632Z,102243.09
2022-10-15T05:22:21.673Z,102253.94
2022-10-15T05:25:16.968Z,102256.41
2022-10-15T05:27:47.727Z,102248.22
2022-10-15T05:30:25.124Z,102258.44
2022-10-15T05:32:58.610Z,102251.66
2022-10-15T05:35:37.411Z,102255.47
2022-10-15T05:38:10.118Z,102261.13
2022-10-15T05:40:50.562Z,102254.34
2022-10-15T05:43:25.254Z,102251.16
2022-10-15T05:45:56.704Z,102250.03
2022-10-15T05:48:27.572Z,102244.19
2022-10-15T05:51:03.726Z,102257.63
2022-10-15T05:53:34.932Z,102260.25
2022-10-15T05:56:17.182Z,102264.19
2022-10-15T05:58:49.815Z,102269.31
2022-10-15T06:01:23.687Z,102270.41
2022-10-15T06:03:58.741Z,102271.47
2022-10-15T06:06:33.733Z,102273.75
2022-10-15T06:09:04.747Z,102275.59
2022-10-15T06:11:41.662Z,102273.38
2022-10-15T06:14:13.654Z,102279.38
2022-10-15T06:16:44.497Z,102277.03
2022-10-15T06:19:16.083Z,102281.84
2022-10-15T06:21:46.466Z,102281.88
2022-10-15T06:24:20.925Z,102288.63
2022-10-15T06:26:55.470Z,102276.41
2022-10-15T06:29:28.753Z,102277.19
2022-10-15T06:31:59.595Z,102288.50
2022-10-15T06:34:31.018Z,102291.53
2022-10-15T06:37:02.369Z,102289.28
2022-10-15T06:39:36.562Z,102276.19
2022-10-15T06:42:10.518Z,102280.41
2022-10-15T06:44:42.740Z,102286.22
2022-10-15T06:47:18.085Z,102285.22
2022-10-15T06:49:51.366Z,102278.31
2022-10-15T06:52:21.585Z,102288.25
2022-10-15T06:54:53.004Z,102288.47
2022-10-15T06:57:27.031Z,102275.63
2022-10-15T07:00:00.091Z,102290.41
2022-10-15T07:02:31.115Z,102287.47
2022-10-15T07:09:55.636Z,102286.25
2022-10-15T07:12:27.813Z,102293.22
2022-10-15T07:14:57.836Z,102299.97
2022-10-15T07:17:31.100Z,102302.56
2022-10-15T07:20:00.806Z,102301.34
2022-10-15T07:22:31.040Z,102297.19
2022-10-15T07:25:01.237Z,102291.81
2022-10-15T07:27:32.719Z,102297.31
2022-10-15T07:30:04.399Z,102299.66
2022-10-15T07:32:36.516Z,102302.91
2022-10-15T07:35:08.861Z,102309.47
2022-10-15T07:37:40.838Z,102302.94
2022-10-15T07:40:14.836Z,102295.66
2022-10-15T07:42:47.387Z,102293.97
2022-10-15T07:45:18.603Z,102297.38
2022-10-15T07:47:48.873Z,102288.25
2022-10-15T07:50:19.383Z,102291.22
2022-10-15T07:52:52.241Z,102287.78
2022-10-15T07:55:24.357Z,102298.56
2022-10-15T07:57:59.747Z,102288.53
2022-10-15T08:03:08.090Z,102289.78
2022-10-15T08:05:38.557Z,102289.56
2022-10-15T08:08:07.818Z,102297.16
2022-10-15T08:10:38.114Z,102277.34
2022-10-15T08:13:09.893Z,102284.59
2022-10-15T08:15:41.424Z,102286.31
2022-10-15T08:18:12.124Z,102296.41
2022-10-15T08:20:42.676Z,102291.31
2022-10-15T08:23:17.317Z,102292.00
2022-10-15T08:25:50.709Z,102287.34
2022-10-15T08:28:24.153Z,102291.59
2022-10-15T08:30:56.012Z,102290.72
2022-10-15T08:33:27.749Z,102298.72
2022-10-15T08:35:57.026Z,102289.41
2022-10-15T08:38:26.744Z,102286.19
2022-10-15T08:41:00.958Z,102287.50
2022-10-15T08:43:38.964Z,102290.06
2022-10-15T08:46:23.420Z,102281.56
2022-10-15T08:48:56.745Z,102296.53
2022-10-15T08:51:30.635Z,102285.66
2022-10-15T08:54:05.022Z,102284.91
2022-10-15T08:56:39.671Z,102290.13
2022-10-15T08:59:21.017Z,102291.22
2022-10-15T09:01:57.013Z,102288.91
2022-10-15T09:04:36.835Z,102288.34
2022-10-15T09:07:15.569Z,102277.84
2022-10-15T09:09:50.331Z,102287.56
2022-10-15T09:12:33.704Z,102275.34
2022-10-15T09:15:05.630Z,102277.22
2022-10-15T09:17:37.808Z,102277.75
2022-10-15T09:20:16.223Z,102281.56
2022-10-15T09:25:29.810Z,102273.75
2022-10-15T09:28:11.838Z,102277.97
2022-10-15T09:30:51.327Z,102280.16
2022-10-15T09:33:38.639Z,102262.06
2022-10-15T09:36:34.160Z,102272.63
2022-10-15T09:39:17.556Z,102262.13
2022-10-15T09:41:56.823Z,102263.03
2022-10-15T09:44:34.308Z,102266.34
2022-10-15T09:47:17.398Z,102264.19
2022-10-15T09:49:50.302Z,102270.16
2022-10-15T09:52:28.094Z,102254.97
2022-10-15T09:55:11.662Z,102258.97
2022-10-15T09:57:42.494Z,102249.31
2022-10-15T10:00:15.137Z,102237.53
2022-10-15T10:03:07.843Z,102251.50
2022-10-15T10:05:40.323Z,102239.41
2022-10-15T10:08:12.087Z,102241.78
2022-10-15T10:10:44.546Z,102230.63
2022-10-15T10:13:27.405Z,102240.56
2022-10-15T10:16:03.562Z,102231.16
2022-10-15T10:18:35.254Z,102244.44
2022-10-15T10:21:07.169Z,102243.13
2022-10-15T10:23:42.648Z,102237.00
2022-10-15T10:26:13.386Z,102230.59
2022-10-15T10:28:53.742Z,102232.06
2022-10-15T10:31:32.500Z,102220.53
2022-10-15T10:34:05.998Z,102212.41
2022-10-15T10:36:39.547Z,102214.16
2022-10-15T10:39:26.008Z,102219.13
2022-10-15T10:41:58.283Z,102215.94
2022-10-15T10:44:35.516Z,102223.94
2022-10-15T10:47:20.355Z,102203.16
2022-10-15T10:49:53.915Z,102204.31
2022-10-15T10:52:26.796Z,102206.81
2022-10-15T10:55:08.063Z,102204.88
2022-10-15T10:57:44.971Z,102206.81
2022-10-15T11:00:20.723Z,102203.44
2022-10-15T11:02:53.725Z,102199.47
2022-10-15T11:05:29.222Z,102186.41
2022-10-15T11:08:11.689Z,102186.91
2022-10-15T11:10:48.248Z,102194.59
2022-10-15T11:13:44.904Z,102191.75
2022-10-15T11:16:32.170Z,102191.47
2022-10-15T11:19:50.251Z,102196.81
2022-10-15T11:22:33.374Z,102188.03
2022-10-15T11:25:17.561Z,102194.38
2022-10-15T11:28:00.420Z,102188.69
2022-10-15T11:30:41.000Z,102194.53
2022-10-15T11:33:27.606Z,102178.69
2022-10-15T11:36:11.402Z,102179.09
2022-10-15T11:38:53.942Z,102181.50
2022-10-15T11:41:41.620Z,102183.22
2022-10-15T11:44:27.415Z,102186.09
2022-10-15T11:47:25.852Z,102182.97
2022-10-15T11:50:10.207Z,102186.75
2022-10-15T11:52:56.403Z,102184.25
2022-10-15T11:55:41.145Z,102181.47
2022-10-15T11:58:18.081Z,102186.84
2022-10-15T12:00:55.209Z,102182.88
2022-10-15T12:03:30.741Z,102179.41
2022-10-15T12:06:05.476Z,102182.06
2022-10-15T12:08:39.030Z,102186.78
2022-10-15T12:11:24.304Z,102177.69
2022-10-15T12:14:01.838Z,102173.88
2022-10-15T12:16:38.264Z,102170.69
2022-10-15T12:19:17.768Z,102173.41
2022-10-15T12:22:07.438Z,102178.53
2022-10-15T12:25:01.293Z,102174.78
2022-10-15T12:27:38.643Z,102175.94
2022-10-15T12:30:34.646Z,102165.25
2022-10-15T12:33:06.058Z,102167.13
2022-10-15T12:35:38.621Z,102177.63
2022-10-15T12:38:29.664Z,102174.84
2022-10-15T12:41:05.732Z,102174.69
2022-10-15T12:43:38.651Z,102174.16
2022-10-15T12:46:11.339Z,102176.03
2022-10-15T12:48:47.611Z,102176.41
2022-10-15T12:51:35.326Z,102172.03
2022-10-15T12:54:30.092Z,102178.53
2022-10-15T12:57:44.932Z,102177.91
2022-10-15T13:00:49.358Z,102175.59
2022-10-15T13:03:35.357Z,102184.09
2022-10-15T13:06:32.703Z,102175.03
2022-10-15T13:09:51.831Z,102175.81
2022-10-15T13:12:41.904Z,102178.59
2022-10-15T13:15:27.161Z,102174.34
2022-10-15T13:18:00.971Z,102178.28
2022-10-15T13:20:46.816Z,102166.22
2022-10-15T13:23:33.647Z,102164.56
2022-10-15T13:26:23.435Z,102167.50
2022-10-15T13:28:55.431Z,102160.81
2022-10-15T13:31:30.672Z,102166.28
2022-10-15T13:34:12.922Z,102155.94
2022-10-15T13:36:43.161Z,102157.19
2022-10-15T13:39:26.223Z,102151.81
2022-10-15T13:42:10.288Z,102157.59
2022-10-15T13:44:41.264Z,102155.28
2022-10-15T13:47:32.745Z,102162.28
2022-10-15T13:50:25.749Z,102154.03
2022-10-15T13:52:59.218Z,102162.50
2022-10-15T13:55:31.472Z,102154.22
2022-10-15T14:03:09.896Z,102157.75
2022-10-15T14:05:41.128Z,102155.72
2022-10-15T14:08:18.885Z,102167.41
2022-10-15T14:10:50.104Z,102168.03
2022-10-15T14:13:20.014Z,102167.47
2022-10-15T14:15:59.911Z,102173.00
2022-10-15T14:18:39.385Z,102178.75
2022-10-15T14:21:16.076Z,102176.50
2022-10-15T14:23:47.991Z,102175.44
2022-10-15T14:26:25.784Z,102172.13
2022-10-15T14:28:57.525Z,102170.19
2022-10-15T14:31:33.454Z,102171.03
2022-10-15T14:34:03.418Z,102172.84
2022-10-15T14:36:43.765Z,102175.44
2022-10-15T14:39:30.398Z,102176.88
2022-10-15T14:42:02.687Z,102174.19
2022-10-15T14:44:44.396Z,102182.16
2022-10-15T14:47:22.877Z,102185.72
2022-10-15T14:50:00.517Z,102181.94
2022-10-15T14:55:11.772Z,102194.88
2022-10-15T14:57:48.489Z,102193.25
2022-10-15T15:00:26.272Z,102186.84
2022-10-15T15:02:58.342Z,102190.47
2022-10-15T15:05:29.398Z,102201.94
2022-10-15T15:08:05.792Z,102198.41
2022-10-15T15:10:36.492Z,102204.47
2022-10-15T15:13:06.431Z,102211.31
2022-10-15T15:15:36.179Z,102206.47
2022-10-15T15:18:06.278Z,102207.84
2022-10-15T15:20:36.143Z,102212.19
2022-10-15T15:23:07.896Z,102208.44
2022-10-15T15:25:38.709Z,102209.78
2022-10-15T15:28:14.972Z,102211.53
2022-10-15T15:30:46.250Z,102214.91
2022-10-15T15:33:17.248Z,102218.22
2022-10-15T15:35:51.258Z,102225.00
2022-10-15T15:38:25.389Z,102230.63
2022-10-15T15:40:55.446Z,102222.13
2022-10-15T15:43:25.844Z,102227.16
2022-10-15T15:45:56.169Z,102230.19
2022-10-15T15:48:26.331Z,102228.22
2022-10-15T15:50:57.398Z,102225.81
2022-10-15T15:53:32.385Z,102220.19
2022-10-15T15:56:06.546Z,102229.25
2022-10-15T15:58:37.228Z,102229.44
2022-10-15T16:01:09.038Z,102236.69
2022-10-15T16:03:40.138Z,102227.72
2022-10-15T16:06:12.632Z,102232.59
2022-10-15T16:08:48.610Z,102232.88
2022-10-15T16:11:19.005Z,102225.66
2022-10-15T16:13:52.539Z,102234.88
2022-10-15T16:16:32.202Z,102230.41
2022-10-15T16:19:10.799Z,102236.16
2022-10-15T16:21:46.651Z,102236.19
2022-10-15T16:24:25.197Z,102232.69
2022-10-15T16:27:03.980Z,102234.31
2022-10-15T16:29:48.012Z,102239.09
2022-10-15T16:32:21.612Z,102237.72
2022-10-15T16:35:15.844Z,102244.69
2022-10-15T16:37:56.462Z,102235.47
2022-10-15T16:40:38.047Z,102240.94
2022-10-15T16:43:16.544Z,102245.44
2022-10-15T16:46:00.331Z,102254.41
2022-10-15T16:48:33.298Z,102256.28
2022-10-15T16:51:12.695Z,102258.13
2022-10-15T16:53:44.945Z,102257.97
2022-10-15T16:56:20.920Z,102264.16
2022-10-15T16:58:52.658Z,102256.09
2022-10-15T17:01:30.329Z,102263.88
2022-10-15T17:05:02.024Z,102263.75
2022-10-15T17:07:38.110Z,102263.97
2022-10-15T17:10:10.940Z,102266.09
2022-10-15T17:12:46.090Z,102266.53
2022-10-15T17:15:16.201Z,102273.22
2022-10-15T17:17:46.309Z,102274.50
2022-10-15T17:20:16.074Z,102263.88
2022-10-15T17:22:45.663Z,102273.97
2022-10-15T17:25:15.536Z,102266.31
2022-10-15T17:27:47.768Z,102269.41
2022-10-15T17:30:18.078Z,102272.69
2022-10-15T17:32:52.323Z,102280.72
2022-10-15T17:35:21.992Z,102278.94
2022-10-15T17:37:51.617Z,102281.81
2022-10-15T17:40:21.376Z,102285.47
2022-10-15T17:42:55.721Z,102287.31
2022-10-15T17:45:27.104Z,102292.31
2022-10-15T17:47:57.695Z,102287.81
2022-10-15T17:50:30.040Z,102292.97
2022-10-15T17:53:01.935Z,102303.06
2022-10-15T17:55:31.818Z,102290.59
2022-10-15T17:58:05.520Z,102302.25
2022-10-15T18:00:36.352Z,102299.22
2022-10-15T18:03:06.977Z,102296.06
2022-10-15T18:05:37.459Z,102299.81
2022-10-15T18:08:10.404Z,102300.31
2022-10-15T18:10:41.616Z,102299.22
2022-10-15T18:13:16.452Z,102296.38
2022-10-15T18:15:47.636Z,102291.34
2022-10-15T18:18:18.311Z,102297.06
2022-10-15T18:20:48.216Z,102297.53
2022-10-15T18:23:18.443Z,102298.63
2022-10-15T18:25:48.102Z,102297.47
2022-10-15T18:28:20.390Z,102302.13
2022-10-15T18:30:50.409Z,102304.16
2022-10-15T18:33:20.668Z,102301.00
2022-10-15T18:35:51.877Z,102305.63
2022-10-15T18:38:22.291Z,102301.56
2022-10-15T18:40:52.305Z,102320.06
2022-10-15T18:43:25.224Z,102318.31
2022-10-15T18:45:55.402Z,102311.84
2022-10-15T18:48:29.331Z,102317.53
2022-10-15T18:51:06.893Z,102312.69
2022-10-15T18:53:37.757Z,102324.25
2022-10-15T18:56:09.450Z,102323.16
2022-10-15T18:58:43.184Z,102322.56
2022-10-15T19:01:14.095Z,102317.00
2022-10-15T19:03:46.070Z,102322.50
2022-10-15T19:06:16.036Z,102321.06
2022-10-15T19:08:49.470Z,102324.66
2022-10-15T19:11:21.056Z,102327.41
2022-10-15T19:13:53.055Z,102323.00
2022-10-15T19:16:23.086Z,102324.50
2022-10-15T19:18:53.205Z,102321.59
2022-10-15T19:21:23.261Z,102333.91
2022-10-15T19:23:53.282Z,102335.31
2022-10-15T19:26:24.684Z,102341.44
2022-10-15T19:28:56.162Z,102342.03
2022-10-15T19:31:27.929Z,102343.22
2022-10-15T19:34:00.065Z,102349.72
2022-10-15T19:36:34.666Z,102343.28
2022-10-15T19:39:07.631Z,102351.00
2022-10-15T19:41:38.846Z,102346.66
2022-10-15T19:44:10.654Z,102341.66
2022-10-15T19:46:40.771Z,102347.47
2022-10-15T19:49:12.975Z,102351.16
2022-10-15T19:51:43.089Z,102356.22
2022-10-15T19:54:13.201Z,102356.47
2022-10-15T19:56:43.130Z,102355.72
2022-10-15T19:59:17.143Z,102357.22
2022-10-15T20:01:46.929Z,102360.06
2022-10-15T20:04:17.079Z,102363.59
2022-10-15T20:06:46.574Z,102360.16
2022-10-15T20:09:16.656Z,102353.38
2022-10-15T20:11:46.278Z,102358.41
2022-10-15T20:14:17.872Z,102364.88
2022-10-15T20:16:47.552Z,102364.88
2022-10-15T20:19:17.429Z,102366.88
2022-10-15T20:21:47.057Z,102367.44
2022-10-15T20:24:16.872Z,102359.63
2022-10-15T20:26:46.656Z,102355.22
2022-10-15T20:29:18.354Z,102350.06
2022-10-15T20:31:48.011Z,102361.84
2022-10-15T20:34:17.436Z,102367.50
2022-10-15T20:36:47.530Z,102363.34
2022-10-15T20:39:17.589Z,102360.25
2022-10-15T20:41:47.537Z,102359.91
2022-10-15T20:44:19.223Z,102366.28
2022-10-15T20:46:53.734Z,102371.09
2022-10-15T20:49:28.291Z,102370.19
2022-10-15T20:52:00.052Z,102369.66
2022-10-15T20:54:30.234Z,102362.84
2022-10-15T20:57:00.100Z,102366.22
2022-10-15T20:59:31.498Z,102368.41
2022-10-15T21:02:01.215Z,102372.47
2022-10-15T21:04:31.179Z,102377.69
2022-10-15T21:07:01.020Z,102381.09
2022-10-15T21:09:30.610Z,102365.34
2022-10-15T21:12:00.387Z,102365.38
2022-10-15T21:14:32.266Z,102364.78
2022-10-15T21:17:01.947Z,102365.16
2022-10-15T21:19:31.604Z,102357.19
2022-10-15T21:22:01.444Z,102359.75
2022-10-15T21:24:31.705Z,102357.88
2022-10-15T21:27:01.887Z,102359.19
2022-10-15T21:29:33.354Z,102363.00
2022-10-15T21:32:03.242Z,102361.56
2022-10-15T21:34:32.881Z,102360.72
2022-10-15T21:37:02.605Z,102373.72
2022-10-15T21:39:32.580Z,102364.03
2022-10-15T21:42:02.434Z,102364.13
2022-10-15T21:44:33.888Z,102372.84
2022-10-15T21:47:05.416Z,102372.66
2022-10-15T21:49:35.439Z,102368.25
2022-10-15T21:52:05.297Z,102365.81
2022-10-15T21:54:36.304Z,102367.19
2022-10-15T21:57:06.478Z,102372.66
2022-10-15T21:59:38.070Z,102372.47
2022-10-15T22:02:07.950Z,102370.63
2022-10-15T22:04:38.157Z,102373.56
2022-10-15T22:07:09.514Z,102373.44
2022-10-15T22:09:40.529Z,102374.25
2022-10-15T22:12:11.621Z,102378.72
2022-10-15T22:14:44.218Z,102365.25
2022-10-15T22:17:15.817Z,102375.72
2022-10-15T22:19:46.496Z,102373.88
2022-10-15T22:22:16.554Z,102372.28
2022-10-15T22:24:47.555Z,102377.00
2022-10-15T22:27:17.504Z,102373.19
2022-10-15T22:32:20.738Z,102372.13
2022-10-15T22:34:51.440Z,102371.00
2022-10-15T22:37:21.535Z,102377.19
2022-10-15T22:39:52.497Z,102373.66
2022-10-15T22:42:22.644Z,102374.34
2022-10-15T22:44:56.223Z,102375.91
2022-10-15T22:47:26.407Z,102381.69
2022-10-15T22:49:56.473Z,102380.31
2022-10-15T22:52:26.659Z,102376.13
2022-10-15T22:54:57.460Z,102382.66
2022-10-15T22:57:27.439Z,102379.63
2022-10-15T22:59:59.501Z,102380.31
2022-10-15T23:02:29.499Z,102384.03
2022-10-15T23:05:00.439Z,102388.91
2022-10-15T23:07:30.457Z,102389.19
2022-10-15T23:10:01.768Z,102381.13
2022-10-15T23:12:35.147Z,102384.03
2022-10-15T23:15:08.058Z,102378.84
2022-10-15T23:17:38.447Z,102384.63
2022-10-15T23:20:09.203Z,102381.59
2022-10-15T23:22:39.486Z,102387.94
2022-10-15T23:25:11.186Z,102396.13
2022-10-15T23:38:26.561Z,102406.09
2022-10-15T23:41:07.528Z,102394.38
2022-10-15T23:43:37.617Z,102403.75
2022-10-15T23:46:08.425Z,102400.19
2022-10-15T23:48:38.327Z,102401.00
2022-10-15T23:51:20.872Z,102402.28
2022-10-15T23:53:51.928Z,102403.44
2022-10-15T23:56:24.962Z,102406.84
2022-10-15T23:58:57.832Z,102401.78
